sensor_id;sensor_type;location;lat;lon;timestamp;temperature;humidity
59469;DHT22;45277;52.768;18.262;2023-12-29T00:00:00;4.80;99.90
59469;DHT22;45277;52.768;18.262;2023-12-29T00:01:32;4.80;99.90
59469;DHT22;45277;52.768;18.262;2023-12-29T00:03:04;4.80;99.90
59469;DHT22;45277;52.768;18.262;2023-12-29T00:04:35;4.80;99.90
59469;DHT22;45277;52.768;18.262;2023-12-29T00:06:07;4.80;99.90
59469;DHT22;45277;52.768;18.262;2023-12-29T00:07:39;4.70;99.90
59469;DHT22;45277;52.768;18.262;2023-12-29T00:09:10;4.70;99.90
59469;DHT22;45277;52.768;18.262;2023-12-29T00:10:43;4.70;99.90
59469;DHT22;45277;52.768;18.262;2023-12-29T00:12:15;4.80;99.90
59469;DHT22;45277;52.768;18.262;2023-12-29T00:13:47;4.70;99.90
59469;DHT22;45277;52.768;18.262;2023-12-29T00:15:18;4.70;99.90
59469;DHT22;45277;52.768;18.262;2023-12-29T00:16:50;4.80;99.90
59469;DHT22;45277;52.768;18.262;2023-12-29T00:18:22;4.80;99.90
59469;DHT22;45277;52.768;18.262;2023-12-29T00:19:55;4.70;99.90
59469;DHT22;45277;52.768;18.262;2023-12-29T00:21:27;4.70;99.90
59469;DHT22;45277;52.768;18.262;2023-12-29T00:22:58;4.70;99.90
59469;DHT22;45277;52.768;18.262;2023-12-29T00:24:30;4.70;99.90
59469;DHT22;45277;52.768;18.262;2023-12-29T00:26:05;4.70;99.90
59469;DHT22;45277;52.768;18.262;2023-12-29T00:27:36;4.70;99.90
59469;DHT22;45277;52.768;18.262;2023-12-29T00:29:08;4.80;99.90
59469;DHT22;45277;52.768;18.262;2023-12-29T00:30:39;4.80;99.90
59469;DHT22;45277;52.768;18.262;2023-12-29T00:32:12;4.70;99.90
59469;DHT22;45277;52.768;18.262;2023-12-29T00:33:46;4.80;99.90
59469;DHT22;45277;52.768;18.262;2023-12-29T00:35:18;4.70;99.90
59469;DHT22;45277;52.768;18.262;2023-12-29T00:36:49;4.70;99.90
59469;DHT22;45277;52.768;18.262;2023-12-29T00:38:21;4.70;99.90
59469;DHT22;45277;52.768;18.262;2023-12-29T00:39:53;4.60;99.90
59469;DHT22;45277;52.768;18.262;2023-12-29T00:41:24;4.60;99.90
59469;DHT22;45277;52.768;18.262;2023-12-29T00:42:55;4.70;99.90
59469;DHT22;45277;52.768;18.262;2023-12-29T00:44:27;4.70;99.90
59469;DHT22;45277;52.768;18.262;2023-12-29T00:46:00;4.70;99.90
59469;DHT22;45277;52.768;18.262;2023-12-29T00:47:31;4.70;99.90
59469;DHT22;45277;52.768;18.262;2023-12-29T00:49:03;4.70;99.90
59469;DHT22;45277;52.768;18.262;2023-12-29T00:50:34;4.70;99.90
59469;DHT22;45277;52.768;18.262;2023-12-29T00:52:06;4.70;99.90
59469;DHT22;45277;52.768;18.262;2023-12-29T00:53:38;4.70;99.90
59469;DHT22;45277;52.768;18.262;2023-12-29T00:55:09;4.70;99.90
59469;DHT22;45277;52.768;18.262;2023-12-29T00:56:40;4.80;99.90
59469;DHT22;45277;52.768;18.262;2023-12-29T00:58:12;4.80;99.90
59469;DHT22;45277;52.768;18.262;2023-12-29T00:59:46;4.70;99.90
59469;DHT22;45277;52.768;18.262;2023-12-29T01:01:17;4.70;99.90
59469;DHT22;45277;52.768;18.262;2023-12-29T01:02:50;4.70;99.90
59469;DHT22;45277;52.768;18.262;2023-12-29T01:04:21;4.70;99.90
59469;DHT22;45277;52.768;18.262;2023-12-29T01:05:52;4.70;99.90
59469;DHT22;45277;52.768;18.262;2023-12-29T01:07:24;4.70;99.90
59469;DHT22;45277;52.768;18.262;2023-12-29T01:08:55;4.80;99.90
59469;DHT22;45277;52.768;18.262;2023-12-29T01:10:27;4.70;99.90
59469;DHT22;45277;52.768;18.262;2023-12-29T01:11:59;4.70;99.90
59469;DHT22;45277;52.768;18.262;2023-12-29T01:13:30;4.70;99.90
59469;DHT22;45277;52.768;18.262;2023-12-29T01:15:02;4.70;99.90
59469;DHT22;45277;52.768;18.262;2023-12-29T01:16:33;4.70;99.90
59469;DHT22;45277;52.768;18.262;2023-12-29T01:18:05;4.70;99.90
59469;DHT22;45277;52.768;18.262;2023-12-29T01:19:36;4.70;99.90
59469;DHT22;45277;52.768;18.262;2023-12-29T01:21:08;4.70;99.90
59469;DHT22;45277;52.768;18.262;2023-12-29T01:22:39;4.70;99.90
59469;DHT22;45277;52.768;18.262;2023-12-29T01:24:11;4.70;99.90
59469;DHT22;45277;52.768;18.262;2023-12-29T01:25:42;4.70;99.90
59469;DHT22;45277;52.768;18.262;2023-12-29T01:27:14;4.70;99.90
59469;DHT22;45277;52.768;18.262;2023-12-29T01:28:45;4.70;99.90
59469;DHT22;45277;52.768;18.262;2023-12-29T01:30:16;4.80;99.90
59469;DHT22;45277;52.768;18.262;2023-12-29T01:31:48;4.70;99.90
59469;DHT22;45277;52.768;18.262;2023-12-29T01:33:19;4.80;99.90
59469;DHT22;45277;52.768;18.262;2023-12-29T01:34:53;4.70;99.90
59469;DHT22;45277;52.768;18.262;2023-12-29T01:36:24;4.80;99.90
59469;DHT22;45277;52.768;18.262;2023-12-29T01:37:56;4.80;99.90
59469;DHT22;45277;52.768;18.262;2023-12-29T01:39:29;4.80;99.90
59469;DHT22;45277;52.768;18.262;2023-12-29T01:41:02;4.80;99.90
59469;DHT22;45277;52.768;18.262;2023-12-29T01:42:33;4.80;99.90
59469;DHT22;45277;52.768;18.262;2023-12-29T01:44:23;4.80;99.90
59469;DHT22;45277;52.768;18.262;2023-12-29T01:45:55;4.80;99.90
59469;DHT22;45277;52.768;18.262;2023-12-29T01:47:26;4.80;99.90
59469;DHT22;45277;52.768;18.262;2023-12-29T01:48:58;4.70;99.90
59469;DHT22;45277;52.768;18.262;2023-12-29T01:50:30;4.70;99.90
59469;DHT22;45277;52.768;18.262;2023-12-29T01:52:03;4.70;99.90
59469;DHT22;45277;52.768;18.262;2023-12-29T01:53:34;4.70;99.90
59469;DHT22;45277;52.768;18.262;2023-12-29T01:55:07;4.70;99.90
59469;DHT22;45277;52.768;18.262;2023-12-29T01:56:40;4.60;99.90
59469;DHT22;45277;52.768;18.262;2023-12-29T01:58:13;4.60;99.90
59469;DHT22;45277;52.768;18.262;2023-12-29T01:59:45;4.60;99.90
59469;DHT22;45277;52.768;18.262;2023-12-29T02:01:18;4.60;99.90
59469;DHT22;45277;52.768;18.262;2023-12-29T02:02:50;4.60;99.90
59469;DHT22;45277;52.768;18.262;2023-12-29T02:04:24;4.60;99.90
59469;DHT22;45277;52.768;18.262;2023-12-29T02:05:57;4.60;99.90
59469;DHT22;45277;52.768;18.262;2023-12-29T02:07:29;4.60;99.90
59469;DHT22;45277;52.768;18.262;2023-12-29T02:09:02;4.50;99.90
59469;DHT22;45277;52.768;18.262;2023-12-29T02:10:37;4.50;99.90
59469;DHT22;45277;52.768;18.262;2023-12-29T02:12:09;4.50;99.90
59469;DHT22;45277;52.768;18.262;2023-12-29T02:13:41;4.50;99.90
59469;DHT22;45277;52.768;18.262;2023-12-29T02:15:12;4.50;99.90
59469;DHT22;45277;52.768;18.262;2023-12-29T02:16:50;4.50;99.90
59469;DHT22;45277;52.768;18.262;2023-12-29T02:18:25;4.50;99.90
59469;DHT22;45277;52.768;18.262;2023-12-29T02:19:57;4.50;99.90
59469;DHT22;45277;52.768;18.262;2023-12-29T02:21:29;4.40;99.90
59469;DHT22;45277;52.768;18.262;2023-12-29T02:23:02;4.40;99.90
59469;DHT22;45277;52.768;18.262;2023-12-29T02:24:34;4.40;99.90
59469;DHT22;45277;52.768;18.262;2023-12-29T02:26:15;4.40;99.90
59469;DHT22;45277;52.768;18.262;2023-12-29T02:29:30;4.40;99.90
59469;DHT22;45277;52.768;18.262;2023-12-29T02:31:15;4.40;99.90
59469;DHT22;45277;52.768;18.262;2023-12-29T02:32:48;4.40;99.90
59469;DHT22;45277;52.768;18.262;2023-12-29T02:34:21;4.50;99.90
59469;DHT22;45277;52.768;18.262;2023-12-29T02:35:56;4.50;99.90
59469;DHT22;45277;52.768;18.262;2023-12-29T02:37:31;4.50;99.90
59469;DHT22;45277;52.768;18.262;2023-12-29T02:39:03;4.50;99.90
59469;DHT22;45277;52.768;18.262;2023-12-29T02:40:35;4.50;99.90
59469;DHT22;45277;52.768;18.262;2023-12-29T02:42:06;4.50;99.90
59469;DHT22;45277;52.768;18.262;2023-12-29T02:43:38;4.50;99.90
59469;DHT22;45277;52.768;18.262;2023-12-29T02:45:09;4.50;99.90
59469;DHT22;45277;52.768;18.262;2023-12-29T02:46:42;4.60;99.90
59469;DHT22;45277;52.768;18.262;2023-12-29T02:48:13;4.50;99.90
59469;DHT22;45277;52.768;18.262;2023-12-29T02:49:45;4.60;99.90
59469;DHT22;45277;52.768;18.262;2023-12-29T02:51:16;4.60;99.90
59469;DHT22;45277;52.768;18.262;2023-12-29T02:52:47;4.60;99.90
59469;DHT22;45277;52.768;18.262;2023-12-29T02:54:19;4.60;99.90
59469;DHT22;45277;52.768;18.262;2023-12-29T02:55:50;4.70;99.90
59469;DHT22;45277;52.768;18.262;2023-12-29T02:57:21;4.70;99.90
59469;DHT22;45277;52.768;18.262;2023-12-29T02:58:53;4.70;99.90
59469;DHT22;45277;52.768;18.262;2023-12-29T03:00:24;4.70;99.90
59469;DHT22;45277;52.768;18.262;2023-12-29T03:01:55;4.70;99.90
59469;DHT22;45277;52.768;18.262;2023-12-29T03:03:27;4.70;99.90
59469;DHT22;45277;52.768;18.262;2023-12-29T03:04:59;4.80;99.90
59469;DHT22;45277;52.768;18.262;2023-12-29T03:06:30;4.80;99.90
59469;DHT22;45277;52.768;18.262;2023-12-29T03:08:02;4.80;99.90
59469;DHT22;45277;52.768;18.262;2023-12-29T03:09:33;4.80;99.90
59469;DHT22;45277;52.768;18.262;2023-12-29T03:11:04;4.90;99.90
59469;DHT22;45277;52.768;18.262;2023-12-29T03:12:36;4.90;99.90
59469;DHT22;45277;52.768;18.262;2023-12-29T03:14:07;4.90;99.90
59469;DHT22;45277;52.768;18.262;2023-12-29T03:15:39;5.00;99.90
59469;DHT22;45277;52.768;18.262;2023-12-29T03:17:11;5.00;99.90
59469;DHT22;45277;52.768;18.262;2023-12-29T03:18:42;5.00;99.90
59469;DHT22;45277;52.768;18.262;2023-12-29T03:20:14;5.10;99.90
59469;DHT22;45277;52.768;18.262;2023-12-29T03:21:45;5.10;99.90
59469;DHT22;45277;52.768;18.262;2023-12-29T03:23:16;5.10;99.90
59469;DHT22;45277;52.768;18.262;2023-12-29T03:24:48;5.10;99.90
59469;DHT22;45277;52.768;18.262;2023-12-29T03:26:20;5.10;99.90
59469;DHT22;45277;52.768;18.262;2023-12-29T03:27:51;5.10;99.90
59469;DHT22;45277;52.768;18.262;2023-12-29T03:29:22;5.10;99.90
59469;DHT22;45277;52.768;18.262;2023-12-29T03:30:54;5.10;99.90
59469;DHT22;45277;52.768;18.262;2023-12-29T03:32:25;5.10;99.90
59469;DHT22;45277;52.768;18.262;2023-12-29T03:33:57;5.10;99.90
59469;DHT22;45277;52.768;18.262;2023-12-29T03:35:29;5.20;99.90
59469;DHT22;45277;52.768;18.262;2023-12-29T03:37:00;5.10;99.90
59469;DHT22;45277;52.768;18.262;2023-12-29T03:38:32;5.10;99.90
59469;DHT22;45277;52.768;18.262;2023-12-29T03:40:05;5.10;99.90
59469;DHT22;45277;52.768;18.262;2023-12-29T03:41:36;5.10;99.90
59469;DHT22;45277;52.768;18.262;2023-12-29T03:43:08;5.20;99.90
59469;DHT22;45277;52.768;18.262;2023-12-29T03:44:39;5.20;99.90
59469;DHT22;45277;52.768;18.262;2023-12-29T03:46:18;5.20;99.90
59469;DHT22;45277;52.768;18.262;2023-12-29T03:47:49;5.10;99.90
59469;DHT22;45277;52.768;18.262;2023-12-29T03:49:21;5.20;99.90
59469;DHT22;45277;52.768;18.262;2023-12-29T03:50:52;5.10;99.90
59469;DHT22;45277;52.768;18.262;2023-12-29T03:52:24;5.20;99.90
59469;DHT22;45277;52.768;18.262;2023-12-29T03:53:55;5.20;99.90
59469;DHT22;45277;52.768;18.262;2023-12-29T03:55:27;5.20;99.90
59469;DHT22;45277;52.768;18.262;2023-12-29T03:56:58;5.20;99.90
59469;DHT22;45277;52.768;18.262;2023-12-29T03:58:30;5.20;99.90
59469;DHT22;45277;52.768;18.262;2023-12-29T04:00:01;5.20;99.90
59469;DHT22;45277;52.768;18.262;2023-12-29T04:01:33;5.20;99.90
59469;DHT22;45277;52.768;18.262;2023-12-29T04:03:05;5.20;99.90
59469;DHT22;45277;52.768;18.262;2023-12-29T04:04:37;5.20;99.90
59469;DHT22;45277;52.768;18.262;2023-12-29T04:06:09;5.20;99.90
59469;DHT22;45277;52.768;18.262;2023-12-29T04:07:41;5.20;99.90
59469;DHT22;45277;52.768;18.262;2023-12-29T04:09:12;5.20;99.90
59469;DHT22;45277;52.768;18.262;2023-12-29T04:10:44;5.20;99.90
59469;DHT22;45277;52.768;18.262;2023-12-29T04:12:15;5.20;99.90
59469;DHT22;45277;52.768;18.262;2023-12-29T04:13:48;5.20;99.90
59469;DHT22;45277;52.768;18.262;2023-12-29T04:15:19;5.20;99.90
59469;DHT22;45277;52.768;18.262;2023-12-29T04:16:51;5.20;99.90
59469;DHT22;45277;52.768;18.262;2023-12-29T04:18:23;5.20;99.90
59469;DHT22;45277;52.768;18.262;2023-12-29T04:19:54;5.20;99.90
59469;DHT22;45277;52.768;18.262;2023-12-29T04:21:27;5.20;99.90
59469;DHT22;45277;52.768;18.262;2023-12-29T04:22:58;5.30;99.90
59469;DHT22;45277;52.768;18.262;2023-12-29T04:24:30;5.30;99.90
59469;DHT22;45277;52.768;18.262;2023-12-29T04:26:02;5.30;99.90
59469;DHT22;45277;52.768;18.262;2023-12-29T04:27:33;5.30;99.90
59469;DHT22;45277;52.768;18.262;2023-12-29T04:29:04;5.30;99.90
59469;DHT22;45277;52.768;18.262;2023-12-29T04:30:36;5.30;99.90
59469;DHT22;45277;52.768;18.262;2023-12-29T04:32:07;5.30;99.90
59469;DHT22;45277;52.768;18.262;2023-12-29T04:33:38;5.40;99.90
59469;DHT22;45277;52.768;18.262;2023-12-29T04:35:10;5.30;99.90
59469;DHT22;45277;52.768;18.262;2023-12-29T04:36:43;5.30;99.90
59469;DHT22;45277;52.768;18.262;2023-12-29T04:38:15;5.30;99.90
59469;DHT22;45277;52.768;18.262;2023-12-29T04:39:48;5.30;99.90
59469;DHT22;45277;52.768;18.262;2023-12-29T04:41:20;5.30;99.90
59469;DHT22;45277;52.768;18.262;2023-12-29T04:42:51;5.30;99.90
59469;DHT22;45277;52.768;18.262;2023-12-29T04:44:23;5.30;99.90
59469;DHT22;45277;52.768;18.262;2023-12-29T04:45:54;5.30;99.90
59469;DHT22;45277;52.768;18.262;2023-12-29T04:47:25;5.30;99.90
59469;DHT22;45277;52.768;18.262;2023-12-29T04:48:57;5.30;99.90
59469;DHT22;45277;52.768;18.262;2023-12-29T04:50:28;5.30;99.90
59469;DHT22;45277;52.768;18.262;2023-12-29T04:52:00;5.30;99.90
59469;DHT22;45277;52.768;18.262;2023-12-29T04:53:31;5.30;99.90
59469;DHT22;45277;52.768;18.262;2023-12-29T04:55:03;5.30;99.90
59469;DHT22;45277;52.768;18.262;2023-12-29T04:56:35;5.30;99.90
59469;DHT22;45277;52.768;18.262;2023-12-29T04:58:06;5.30;99.90
59469;DHT22;45277;52.768;18.262;2023-12-29T04:59:37;5.30;99.90
59469;DHT22;45277;52.768;18.262;2023-12-29T05:01:09;5.20;99.90
59469;DHT22;45277;52.768;18.262;2023-12-29T05:02:40;5.30;99.90
59469;DHT22;45277;52.768;18.262;2023-12-29T05:04:12;5.30;99.90
59469;DHT22;45277;52.768;18.262;2023-12-29T05:05:45;5.30;99.90
59469;DHT22;45277;52.768;18.262;2023-12-29T05:07:17;5.30;99.90
59469;DHT22;45277;52.768;18.262;2023-12-29T05:08:48;5.20;99.90
59469;DHT22;45277;52.768;18.262;2023-12-29T05:10:19;5.20;99.90
59469;DHT22;45277;52.768;18.262;2023-12-29T05:11:51;5.20;99.90
59469;DHT22;45277;52.768;18.262;2023-12-29T05:13:22;5.20;99.90
59469;DHT22;45277;52.768;18.262;2023-12-29T05:14:53;5.20;99.90
59469;DHT22;45277;52.768;18.262;2023-12-29T05:16:25;5.20;99.90
59469;DHT22;45277;52.768;18.262;2023-12-29T05:17:56;5.20;99.90
59469;DHT22;45277;52.768;18.262;2023-12-29T05:19:28;5.20;99.90
59469;DHT22;45277;52.768;18.262;2023-12-29T05:20:59;5.20;99.90
59469;DHT22;45277;52.768;18.262;2023-12-29T05:22:30;5.30;99.90
59469;DHT22;45277;52.768;18.262;2023-12-29T05:24:02;5.20;99.90
59469;DHT22;45277;52.768;18.262;2023-12-29T05:25:35;5.20;99.90
59469;DHT22;45277;52.768;18.262;2023-12-29T05:27:06;5.30;99.90
59469;DHT22;45277;52.768;18.262;2023-12-29T05:28:37;5.20;99.90
59469;DHT22;45277;52.768;18.262;2023-12-29T05:30:10;5.30;99.90
59469;DHT22;45277;52.768;18.262;2023-12-29T05:31:41;5.30;99.90
59469;DHT22;45277;52.768;18.262;2023-12-29T05:33:12;5.40;99.90
59469;DHT22;45277;52.768;18.262;2023-12-29T05:34:44;5.40;99.90
59469;DHT22;45277;52.768;18.262;2023-12-29T05:36:15;5.30;99.90
59469;DHT22;45277;52.768;18.262;2023-12-29T05:37:46;5.40;99.90
59469;DHT22;45277;52.768;18.262;2023-12-29T05:39:18;5.30;99.90
59469;DHT22;45277;52.768;18.262;2023-12-29T05:40:50;5.40;99.90
59469;DHT22;45277;52.768;18.262;2023-12-29T05:42:21;5.50;99.90
59469;DHT22;45277;52.768;18.262;2023-12-29T05:43:53;5.50;99.90
59469;DHT22;45277;52.768;18.262;2023-12-29T05:45:24;5.50;99.90
59469;DHT22;45277;52.768;18.262;2023-12-29T05:46:55;5.40;99.90
59469;DHT22;45277;52.768;18.262;2023-12-29T05:48:28;5.50;99.90
59469;DHT22;45277;52.768;18.262;2023-12-29T05:49:59;5.50;99.90
59469;DHT22;45277;52.768;18.262;2023-12-29T05:51:31;5.50;99.90
59469;DHT22;45277;52.768;18.262;2023-12-29T05:53:02;5.60;99.90
59469;DHT22;45277;52.768;18.262;2023-12-29T05:54:34;5.60;99.90
59469;DHT22;45277;52.768;18.262;2023-12-29T05:56:06;5.50;99.90
59469;DHT22;45277;52.768;18.262;2023-12-29T05:57:37;5.60;99.90
59469;DHT22;45277;52.768;18.262;2023-12-29T05:59:09;5.60;99.90
59469;DHT22;45277;52.768;18.262;2023-12-29T06:00:40;5.60;99.90
59469;DHT22;45277;52.768;18.262;2023-12-29T06:02:12;5.60;99.90
59469;DHT22;45277;52.768;18.262;2023-12-29T06:03:44;5.60;99.90
59469;DHT22;45277;52.768;18.262;2023-12-29T06:05:15;5.60;99.90
59469;DHT22;45277;52.768;18.262;2023-12-29T06:06:47;5.60;99.90
59469;DHT22;45277;52.768;18.262;2023-12-29T06:08:18;5.70;99.90
59469;DHT22;45277;52.768;18.262;2023-12-29T06:09:50;5.70;99.90
59469;DHT22;45277;52.768;18.262;2023-12-29T06:11:21;5.70;99.90
59469;DHT22;45277;52.768;18.262;2023-12-29T06:12:52;5.70;99.90
59469;DHT22;45277;52.768;18.262;2023-12-29T06:14:24;5.70;99.90
59469;DHT22;45277;52.768;18.262;2023-12-29T06:15:55;5.70;99.90
59469;DHT22;45277;52.768;18.262;2023-12-29T06:17:27;5.70;99.90
59469;DHT22;45277;52.768;18.262;2023-12-29T06:18:58;5.60;99.90
59469;DHT22;45277;52.768;18.262;2023-12-29T06:20:30;5.60;99.90
59469;DHT22;45277;52.768;18.262;2023-12-29T06:22:01;5.50;99.90
59469;DHT22;45277;52.768;18.262;2023-12-29T06:23:32;5.40;99.90
59469;DHT22;45277;52.768;18.262;2023-12-29T06:25:04;5.40;99.90
59469;DHT22;45277;52.768;18.262;2023-12-29T06:26:36;5.40;99.90
59469;DHT22;45277;52.768;18.262;2023-12-29T06:28:12;5.40;99.90
59469;DHT22;45277;52.768;18.262;2023-12-29T06:29:44;5.30;99.90
59469;DHT22;45277;52.768;18.262;2023-12-29T06:31:17;5.40;99.90
59469;DHT22;45277;52.768;18.262;2023-12-29T06:32:48;5.40;99.90
59469;DHT22;45277;52.768;18.262;2023-12-29T06:34:20;5.40;99.90
59469;DHT22;45277;52.768;18.262;2023-12-29T06:35:51;5.30;99.90
59469;DHT22;45277;52.768;18.262;2023-12-29T06:37:23;5.40;99.90
59469;DHT22;45277;52.768;18.262;2023-12-29T06:38:55;5.40;99.90
59469;DHT22;45277;52.768;18.262;2023-12-29T06:40:26;5.30;99.90
59469;DHT22;45277;52.768;18.262;2023-12-29T06:41:58;5.30;99.90
59469;DHT22;45277;52.768;18.262;2023-12-29T06:43:29;5.30;99.90
59469;DHT22;45277;52.768;18.262;2023-12-29T06:45:02;5.40;99.90
59469;DHT22;45277;52.768;18.262;2023-12-29T06:46:33;5.40;99.90
59469;DHT22;45277;52.768;18.262;2023-12-29T06:48:05;5.50;99.90
59469;DHT22;45277;52.768;18.262;2023-12-29T06:49:37;5.50;99.90
59469;DHT22;45277;52.768;18.262;2023-12-29T06:51:08;5.50;99.90
59469;DHT22;45277;52.768;18.262;2023-12-29T06:52:41;5.50;99.90
59469;DHT22;45277;52.768;18.262;2023-12-29T06:54:13;5.50;99.90
59469;DHT22;45277;52.768;18.262;2023-12-29T06:55:44;5.50;99.90
59469;DHT22;45277;52.768;18.262;2023-12-29T06:57:16;5.50;99.90
59469;DHT22;45277;52.768;18.262;2023-12-29T06:58:48;5.60;99.90
59469;DHT22;45277;52.768;18.262;2023-12-29T07:00:19;5.60;99.90
59469;DHT22;45277;52.768;18.262;2023-12-29T07:01:51;5.70;99.90
59469;DHT22;45277;52.768;18.262;2023-12-29T07:03:23;5.70;99.90
59469;DHT22;45277;52.768;18.262;2023-12-29T07:04:54;5.80;99.90
59469;DHT22;45277;52.768;18.262;2023-12-29T07:06:27;5.80;99.90
59469;DHT22;45277;52.768;18.262;2023-12-29T07:07:58;5.90;99.90
59469;DHT22;45277;52.768;18.262;2023-12-29T07:09:30;5.90;99.90
59469;DHT22;45277;52.768;18.262;2023-12-29T07:11:02;5.90;99.90
59469;DHT22;45277;52.768;18.262;2023-12-29T07:12:34;6.00;99.90
59469;DHT22;45277;52.768;18.262;2023-12-29T07:14:05;6.10;99.90
59469;DHT22;45277;52.768;18.262;2023-12-29T07:15:38;6.10;99.90
59469;DHT22;45277;52.768;18.262;2023-12-29T07:17:09;6.10;99.90
59469;DHT22;45277;52.768;18.262;2023-12-29T07:18:41;6.10;99.90
59469;DHT22;45277;52.768;18.262;2023-12-29T07:20:14;6.10;99.90
59469;DHT22;45277;52.768;18.262;2023-12-29T07:21:46;6.20;99.90
59469;DHT22;45277;52.768;18.262;2023-12-29T07:23:17;6.20;99.90
59469;DHT22;45277;52.768;18.262;2023-12-29T07:24:50;6.20;99.90
59469;DHT22;45277;52.768;18.262;2023-12-29T07:26:21;6.20;99.90
59469;DHT22;45277;52.768;18.262;2023-12-29T07:27:53;6.20;99.90
59469;DHT22;45277;52.768;18.262;2023-12-29T07:29:25;6.20;99.90
59469;DHT22;45277;52.768;18.262;2023-12-29T07:30:57;6.20;99.90
59469;DHT22;45277;52.768;18.262;2023-12-29T07:32:28;6.20;99.90
59469;DHT22;45277;52.768;18.262;2023-12-29T07:34:00;6.30;99.90
59469;DHT22;45277;52.768;18.262;2023-12-29T07:35:32;6.30;99.90
59469;DHT22;45277;52.768;18.262;2023-12-29T07:37:04;6.30;99.90
59469;DHT22;45277;52.768;18.262;2023-12-29T07:38:36;6.40;99.90
59469;DHT22;45277;52.768;18.262;2023-12-29T07:40:10;6.50;99.90
59469;DHT22;45277;52.768;18.262;2023-12-29T07:41:42;6.50;99.90
59469;DHT22;45277;52.768;18.262;2023-12-29T07:43:14;6.50;99.90
59469;DHT22;45277;52.768;18.262;2023-12-29T07:44:46;6.50;99.90
59469;DHT22;45277;52.768;18.262;2023-12-29T07:46:27;6.60;99.90
59469;DHT22;45277;52.768;18.262;2023-12-29T07:47:59;6.60;99.90
59469;DHT22;45277;52.768;18.262;2023-12-29T07:49:30;6.60;99.90
59469;DHT22;45277;52.768;18.262;2023-12-29T07:51:05;6.60;99.90
59469;DHT22;45277;52.768;18.262;2023-12-29T07:52:37;6.60;99.90
59469;DHT22;45277;52.768;18.262;2023-12-29T07:54:09;6.60;99.90
59469;DHT22;45277;52.768;18.262;2023-12-29T07:55:42;6.60;99.90
59469;DHT22;45277;52.768;18.262;2023-12-29T07:57:14;6.60;99.90
59469;DHT22;45277;52.768;18.262;2023-12-29T07:58:45;6.60;99.90
59469;DHT22;45277;52.768;18.262;2023-12-29T08:00:17;6.60;99.90
59469;DHT22;45277;52.768;18.262;2023-12-29T08:01:49;6.60;99.90
59469;DHT22;45277;52.768;18.262;2023-12-29T08:03:21;6.70;99.90
59469;DHT22;45277;52.768;18.262;2023-12-29T08:04:52;6.60;99.90
59469;DHT22;45277;52.768;18.262;2023-12-29T08:06:26;6.70;99.90
59469;DHT22;45277;52.768;18.262;2023-12-29T08:07:58;6.70;99.90
59469;DHT22;45277;52.768;18.262;2023-12-29T08:09:29;6.70;99.90
59469;DHT22;45277;52.768;18.262;2023-12-29T08:11:01;6.60;99.90
59469;DHT22;45277;52.768;18.262;2023-12-29T08:12:33;6.60;99.90
59469;DHT22;45277;52.768;18.262;2023-12-29T08:14:06;6.70;99.90
59469;DHT22;45277;52.768;18.262;2023-12-29T08:15:39;6.70;99.90
59469;DHT22;45277;52.768;18.262;2023-12-29T08:17:11;6.60;99.90
59469;DHT22;45277;52.768;18.262;2023-12-29T08:18:42;6.70;99.90
59469;DHT22;45277;52.768;18.262;2023-12-29T08:20:14;6.70;99.90
59469;DHT22;45277;52.768;18.262;2023-12-29T08:21:46;6.70;99.90
59469;DHT22;45277;52.768;18.262;2023-12-29T08:23:19;6.80;99.90
59469;DHT22;45277;52.768;18.262;2023-12-29T08:24:51;6.70;99.90
59469;DHT22;45277;52.768;18.262;2023-12-29T08:26:24;6.70;99.90
59469;DHT22;45277;52.768;18.262;2023-12-29T08:27:56;6.80;99.90
59469;DHT22;45277;52.768;18.262;2023-12-29T08:29:28;6.80;99.90
59469;DHT22;45277;52.768;18.262;2023-12-29T08:31:00;6.80;99.90
59469;DHT22;45277;52.768;18.262;2023-12-29T08:32:31;6.80;99.90
59469;DHT22;45277;52.768;18.262;2023-12-29T08:34:05;6.90;99.90
59469;DHT22;45277;52.768;18.262;2023-12-29T08:35:36;6.90;99.90
59469;DHT22;45277;52.768;18.262;2023-12-29T08:37:08;6.90;99.90
59469;DHT22;45277;52.768;18.262;2023-12-29T08:38:40;6.90;99.90
59469;DHT22;45277;52.768;18.262;2023-12-29T08:40:11;7.00;99.90
59469;DHT22;45277;52.768;18.262;2023-12-29T08:41:43;7.10;99.90
59469;DHT22;45277;52.768;18.262;2023-12-29T08:43:15;7.10;99.90
59469;DHT22;45277;52.768;18.262;2023-12-29T08:44:52;7.20;99.90
59469;DHT22;45277;52.768;18.262;2023-12-29T08:46:23;7.30;99.90
59469;DHT22;45277;52.768;18.262;2023-12-29T08:47:56;7.30;99.90
59469;DHT22;45277;52.768;18.262;2023-12-29T08:49:27;7.40;99.90
59469;DHT22;45277;52.768;18.262;2023-12-29T08:50:59;7.40;99.90
59469;DHT22;45277;52.768;18.262;2023-12-29T08:52:31;7.40;99.90
59469;DHT22;45277;52.768;18.262;2023-12-29T08:54:04;7.40;99.90
59469;DHT22;45277;52.768;18.262;2023-12-29T08:55:36;7.40;99.90
59469;DHT22;45277;52.768;18.262;2023-12-29T08:57:08;7.50;99.90
59469;DHT22;45277;52.768;18.262;2023-12-29T08:58:40;7.40;99.90
59469;DHT22;45277;52.768;18.262;2023-12-29T09:00:13;7.30;99.90
59469;DHT22;45277;52.768;18.262;2023-12-29T09:01:45;7.30;99.90
59469;DHT22;45277;52.768;18.262;2023-12-29T09:03:16;7.30;99.90
59469;DHT22;45277;52.768;18.262;2023-12-29T09:04:48;7.30;99.90
59469;DHT22;45277;52.768;18.262;2023-12-29T09:06:20;7.30;99.90
59469;DHT22;45277;52.768;18.262;2023-12-29T09:07:52;7.30;99.90
59469;DHT22;45277;52.768;18.262;2023-12-29T09:09:24;7.30;99.90
59469;DHT22;45277;52.768;18.262;2023-12-29T09:10:56;7.40;99.90
59469;DHT22;45277;52.768;18.262;2023-12-29T09:12:28;7.40;99.90
59469;DHT22;45277;52.768;18.262;2023-12-29T09:13:59;7.50;99.90
59469;DHT22;45277;52.768;18.262;2023-12-29T09:15:32;7.50;99.90
59469;DHT22;45277;52.768;18.262;2023-12-29T09:17:05;7.50;99.90
59469;DHT22;45277;52.768;18.262;2023-12-29T09:18:37;7.50;99.90
59469;DHT22;45277;52.768;18.262;2023-12-29T09:20:09;7.50;99.90
59469;DHT22;45277;52.768;18.262;2023-12-29T09:21:41;7.50;99.90
59469;DHT22;45277;52.768;18.262;2023-12-29T09:23:12;7.60;99.90
59469;DHT22;45277;52.768;18.262;2023-12-29T09:24:44;7.70;99.90
59469;DHT22;45277;52.768;18.262;2023-12-29T09:26:16;7.80;99.90
59469;DHT22;45277;52.768;18.262;2023-12-29T09:27:47;7.80;99.90
59469;DHT22;45277;52.768;18.262;2023-12-29T09:29:21;7.90;99.90
59469;DHT22;45277;52.768;18.262;2023-12-29T09:30:52;8.00;99.90
59469;DHT22;45277;52.768;18.262;2023-12-29T09:32:24;8.00;99.90
59469;DHT22;45277;52.768;18.262;2023-12-29T09:33:56;8.00;99.90
59469;DHT22;45277;52.768;18.262;2023-12-29T09:35:28;8.00;99.90
59469;DHT22;45277;52.768;18.262;2023-12-29T09:37:00;8.10;99.90
59469;DHT22;45277;52.768;18.262;2023-12-29T09:38:33;8.10;99.90
59469;DHT22;45277;52.768;18.262;2023-12-29T09:40:06;8.10;99.90
59469;DHT22;45277;52.768;18.262;2023-12-29T09:41:39;8.10;99.90